Terminal Aerodrome Forecast
Issued by NWS

Home | Current Version | Previous Version | Text Only | Print | Product List | Glossary On
Versions: 1 2 3 4 5 6 7 8 9 10 11 12 13 14 15 16 17 18 19 20 21 22 23 24 25 26 27
000
FTUS43 KABR 232334 CCA
TAFPIR
TAF COR
KPIR 232334Z 2400/2424 09011KT P6SM VCSH SCT015 OVC090
      TEMPO 2400/2402 BKN015
     FM240200 08010KT 5SM -SN OVC015
     FM240900 06011KT 2SM -SN OVC003
     FM241700 03018G25KT 1SM -SN BLSN OVC008=

USA.gov is the U.S. government's official web portal to all federal, state and local government web resources and services.